sensor_id;sensor_type;location;lat;lon;timestamp;P1;durP1;ratioP1;P2;durP2;ratioP2
71947;SDS011;59820;55.076;38.766;2022-07-23T00:01:24;14.48;;;8.20;;
71947;SDS011;59820;55.076;38.766;2022-07-23T00:03:50;13.37;;;8.27;;
71947;SDS011;59820;55.076;38.766;2022-07-23T00:06:17;17.02;;;8.55;;
71947;SDS011;59820;55.076;38.766;2022-07-23T00:08:43;13.65;;;8.38;;
71947;SDS011;59820;55.076;38.766;2022-07-23T00:11:09;14.73;;;8.13;;
71947;SDS011;59820;55.076;38.766;2022-07-23T00:13:35;14.43;;;8.20;;
71947;SDS011;59820;55.076;38.766;2022-07-23T00:16:02;13.88;;;7.95;;
71947;SDS011;59820;55.076;38.766;2022-07-23T00:18:29;13.52;;;8.35;;
71947;SDS011;59820;55.076;38.766;2022-07-23T00:20:55;13.80;;;7.53;;
71947;SDS011;59820;55.076;38.766;2022-07-23T00:23:20;16.77;;;7.93;;
71947;SDS011;59820;55.076;38.766;2022-07-23T00:25:46;15.63;;;8.60;;
71947;SDS011;59820;55.076;38.766;2022-07-23T00:28:12;15.93;;;8.73;;
71947;SDS011;59820;55.076;38.766;2022-07-23T00:30:39;14.00;;;8.70;;
71947;SDS011;59820;55.076;38.766;2022-07-23T00:33:06;13.90;;;8.30;;
71947;SDS011;59820;55.076;38.766;2022-07-23T00:35:34;12.97;;;8.63;;
71947;SDS011;59820;55.076;38.766;2022-07-23T00:38:02;15.20;;;8.68;;
71947;SDS011;59820;55.076;38.766;2022-07-23T00:40:30;13.27;;;8.13;;
71947;SDS011;59820;55.076;38.766;2022-07-23T00:42:56;15.20;;;8.13;;
71947;SDS011;59820;55.076;38.766;2022-07-23T00:45:25;16.02;;;8.60;;
71947;SDS011;59820;55.076;38.766;2022-07-23T00:47:51;16.80;;;8.27;;
71947;SDS011;59820;55.076;38.766;2022-07-23T00:50:17;16.05;;;8.30;;
71947;SDS011;59820;55.076;38.766;2022-07-23T00:52:43;17.73;;;8.70;;
71947;SDS011;59820;55.076;38.766;2022-07-23T00:55:10;15.38;;;8.57;;
71947;SDS011;59820;55.076;38.766;2022-07-23T00:57:37;14.98;;;8.20;;
71947;SDS011;59820;55.076;38.766;2022-07-23T01:00:08;16.47;;;7.80;;
71947;SDS011;59820;55.076;38.766;2022-07-23T01:02:36;15.63;;;8.23;;
71947;SDS011;59820;55.076;38.766;2022-07-23T01:05:03;16.42;;;8.50;;
71947;SDS011;59820;55.076;38.766;2022-07-23T01:07:30;19.17;;;8.30;;
71947;SDS011;59820;55.076;38.766;2022-07-23T01:09:56;13.00;;;8.98;;
71947;SDS011;59820;55.076;38.766;2022-07-23T01:12:24;15.20;;;7.97;;
71947;SDS011;59820;55.076;38.766;2022-07-23T01:14:57;14.85;;;8.43;;
71947;SDS011;59820;55.076;38.766;2022-07-23T01:17:24;14.07;;;8.40;;
71947;SDS011;59820;55.076;38.766;2022-07-23T01:19:53;15.93;;;8.35;;
71947;SDS011;59820;55.076;38.766;2022-07-23T01:22:19;14.13;;;8.25;;
71947;SDS011;59820;55.076;38.766;2022-07-23T01:24:47;14.15;;;8.18;;
71947;SDS011;59820;55.076;38.766;2022-07-23T01:27:13;14.27;;;8.10;;
71947;SDS011;59820;55.076;38.766;2022-07-23T01:29:39;16.95;;;8.10;;
71947;SDS011;59820;55.076;38.766;2022-07-23T01:32:14;13.00;;;8.25;;
71947;SDS011;59820;55.076;38.766;2022-07-23T01:34:40;14.07;;;8.53;;
71947;SDS011;59820;55.076;38.766;2022-07-23T01:37:06;14.98;;;8.27;;
71947;SDS011;59820;55.076;38.766;2022-07-23T01:39:33;12.93;;;7.97;;
71947;SDS011;59820;55.076;38.766;2022-07-23T01:41:59;12.38;;;8.68;;
71947;SDS011;59820;55.076;38.766;2022-07-23T01:44:26;17.83;;;9.68;;
71947;SDS011;59820;55.076;38.766;2022-07-23T01:46:52;13.57;;;9.03;;
71947;SDS011;59820;55.076;38.766;2022-07-23T01:49:19;14.15;;;8.00;;
71947;SDS011;59820;55.076;38.766;2022-07-23T01:52:08;15.13;;;8.30;;
71947;SDS011;59820;55.076;38.766;2022-07-23T01:54:43;13.32;;;8.50;;
71947;SDS011;59820;55.076;38.766;2022-07-23T01:57:09;15.03;;;8.73;;
71947;SDS011;59820;55.076;38.766;2022-07-23T01:59:36;13.13;;;8.10;;
71947;SDS011;59820;55.076;38.766;2022-07-23T02:02:04;14.65;;;8.40;;
71947;SDS011;59820;55.076;38.766;2022-07-23T02:04:30;13.90;;;8.00;;
71947;SDS011;59820;55.076;38.766;2022-07-23T02:07:01;14.52;;;8.23;;
71947;SDS011;59820;55.076;38.766;2022-07-23T02:09:27;16.30;;;8.40;;
71947;SDS011;59820;55.076;38.766;2022-07-23T02:11:53;14.90;;;7.45;;
71947;SDS011;59820;55.076;38.766;2022-07-23T02:14:19;12.88;;;7.65;;
71947;SDS011;59820;55.076;38.766;2022-07-23T02:16:45;13.63;;;7.70;;
71947;SDS011;59820;55.076;38.766;2022-07-23T02:19:11;11.90;;;7.53;;
71947;SDS011;59820;55.076;38.766;2022-07-23T02:21:37;12.70;;;7.45;;
71947;SDS011;59820;55.076;38.766;2022-07-23T02:24:03;13.65;;;7.57;;
71947;SDS011;59820;55.076;38.766;2022-07-23T02:26:30;11.77;;;7.10;;
71947;SDS011;59820;55.076;38.766;2022-07-23T02:29:02;15.30;;;7.80;;
71947;SDS011;59820;55.076;38.766;2022-07-23T02:31:28;14.63;;;7.70;;
71947;SDS011;59820;55.076;38.766;2022-07-23T02:33:56;15.75;;;7.47;;
71947;SDS011;59820;55.076;38.766;2022-07-23T02:36:22;14.20;;;7.55;;
71947;SDS011;59820;55.076;38.766;2022-07-23T02:38:50;13.43;;;7.57;;
71947;SDS011;59820;55.076;38.766;2022-07-23T02:41:16;13.20;;;7.30;;
71947;SDS011;59820;55.076;38.766;2022-07-23T02:43:43;12.82;;;7.90;;
71947;SDS011;59820;55.076;38.766;2022-07-23T02:46:11;15.07;;;7.47;;
71947;SDS011;59820;55.076;38.766;2022-07-23T02:48:38;11.23;;;7.70;;
71947;SDS011;59820;55.076;38.766;2022-07-23T02:51:04;12.23;;;8.07;;
71947;SDS011;59820;55.076;38.766;2022-07-23T02:53:36;12.35;;;7.63;;
71947;SDS011;59820;55.076;38.766;2022-07-23T02:56:03;17.40;;;8.18;;
71947;SDS011;59820;55.076;38.766;2022-07-23T02:58:29;11.90;;;7.10;;
71947;SDS011;59820;55.076;38.766;2022-07-23T03:00:55;13.53;;;7.73;;
71947;SDS011;59820;55.076;38.766;2022-07-23T03:03:23;17.05;;;7.45;;
71947;SDS011;59820;55.076;38.766;2022-07-23T03:05:52;13.10;;;8.05;;
71947;SDS011;59820;55.076;38.766;2022-07-23T03:08:18;15.70;;;8.60;;
71947;SDS011;59820;55.076;38.766;2022-07-23T03:10:49;12.50;;;7.53;;
71947;SDS011;59820;55.076;38.766;2022-07-23T03:13:15;13.00;;;8.20;;
71947;SDS011;59820;55.076;38.766;2022-07-23T03:15:42;14.95;;;7.80;;
71947;SDS011;59820;55.076;38.766;2022-07-23T03:18:08;12.02;;;7.45;;
71947;SDS011;59820;55.076;38.766;2022-07-23T03:20:33;11.45;;;7.18;;
71947;SDS011;59820;55.076;38.766;2022-07-23T03:23:00;11.70;;;7.38;;
71947;SDS011;59820;55.076;38.766;2022-07-23T03:25:27;12.55;;;7.20;;
71947;SDS011;59820;55.076;38.766;2022-07-23T03:27:53;11.60;;;7.17;;
71947;SDS011;59820;55.076;38.766;2022-07-23T03:30:19;13.25;;;7.75;;
71947;SDS011;59820;55.076;38.766;2022-07-23T03:32:45;13.93;;;7.75;;
71947;SDS011;59820;55.076;38.766;2022-07-23T03:35:12;15.48;;;7.80;;
71947;SDS011;59820;55.076;38.766;2022-07-23T03:37:45;14.75;;;7.80;;
71947;SDS011;59820;55.076;38.766;2022-07-23T03:40:12;12.27;;;8.03;;
71947;SDS011;59820;55.076;38.766;2022-07-23T03:42:38;11.90;;;8.00;;
71947;SDS011;59820;55.076;38.766;2022-07-23T03:45:06;14.65;;;8.30;;
71947;SDS011;59820;55.076;38.766;2022-07-23T03:47:32;14.60;;;7.85;;
71947;SDS011;59820;55.076;38.766;2022-07-23T03:49:59;13.03;;;8.27;;
71947;SDS011;59820;55.076;38.766;2022-07-23T03:52:25;12.18;;;8.30;;
71947;SDS011;59820;55.076;38.766;2022-07-23T03:54:51;12.25;;;7.97;;
71947;SDS011;59820;55.076;38.766;2022-07-23T03:57:17;14.50;;;8.80;;
71947;SDS011;59820;55.076;38.766;2022-07-23T03:59:43;13.57;;;8.32;;
71947;SDS011;59820;55.076;38.766;2022-07-23T04:02:10;15.27;;;8.45;;
71947;SDS011;59820;55.076;38.766;2022-07-23T04:04:36;16.48;;;9.13;;
71947;SDS011;59820;55.076;38.766;2022-07-23T04:07:03;13.40;;;8.47;;
71947;SDS011;59820;55.076;38.766;2022-07-23T04:09:30;13.75;;;9.30;;
71947;SDS011;59820;55.076;38.766;2022-07-23T04:11:56;14.07;;;8.95;;
71947;SDS011;59820;55.076;38.766;2022-07-23T04:14:22;13.10;;;8.80;;
71947;SDS011;59820;55.076;38.766;2022-07-23T04:16:48;21.77;;;13.50;;
71947;SDS011;59820;55.076;38.766;2022-07-23T04:19:14;15.13;;;8.98;;
71947;SDS011;59820;55.076;38.766;2022-07-23T04:21:53;13.27;;;8.75;;
71947;SDS011;59820;55.076;38.766;2022-07-23T04:24:19;13.23;;;8.33;;
71947;SDS011;59820;55.076;38.766;2022-07-23T04:26:45;15.18;;;8.90;;
71947;SDS011;59820;55.076;38.766;2022-07-23T04:29:11;14.75;;;9.02;;
71947;SDS011;59820;55.076;38.766;2022-07-23T04:31:37;16.85;;;9.73;;
71947;SDS011;59820;55.076;38.766;2022-07-23T04:34:04;16.07;;;9.77;;
71947;SDS011;59820;55.076;38.766;2022-07-23T04:36:31;13.68;;;8.93;;
71947;SDS011;59820;55.076;38.766;2022-07-23T04:38:57;15.82;;;9.93;;
71947;SDS011;59820;55.076;38.766;2022-07-23T04:41:23;16.65;;;10.50;;
71947;SDS011;59820;55.076;38.766;2022-07-23T04:43:49;13.47;;;9.70;;
71947;SDS011;59820;55.076;38.766;2022-07-23T04:46:18;14.90;;;9.88;;
71947;SDS011;59820;55.076;38.766;2022-07-23T04:48:47;15.25;;;9.70;;
71947;SDS011;59820;55.076;38.766;2022-07-23T04:51:14;15.40;;;9.63;;
71947;SDS011;59820;55.076;38.766;2022-07-23T04:53:40;19.60;;;12.23;;
71947;SDS011;59820;55.076;38.766;2022-07-23T04:56:06;13.38;;;9.65;;
71947;SDS011;59820;55.076;38.766;2022-07-23T04:58:32;15.57;;;10.10;;
71947;SDS011;59820;55.076;38.766;2022-07-23T05:00:59;15.30;;;9.38;;
71947;SDS011;59820;55.076;38.766;2022-07-23T05:03:26;14.80;;;10.10;;
71947;SDS011;59820;55.076;38.766;2022-07-23T05:05:52;13.67;;;8.97;;
71947;SDS011;59820;55.076;38.766;2022-07-23T05:08:19;15.27;;;10.15;;
71947;SDS011;59820;55.076;38.766;2022-07-23T05:10:49;12.88;;;9.73;;
71947;SDS011;59820;55.076;38.766;2022-07-23T05:13:16;14.85;;;10.00;;
71947;SDS011;59820;55.076;38.766;2022-07-23T05:15:43;17.00;;;10.18;;
71947;SDS011;59820;55.076;38.766;2022-07-23T05:18:09;16.53;;;10.80;;
71947;SDS011;59820;55.076;38.766;2022-07-23T05:20:36;14.40;;;9.55;;
71947;SDS011;59820;55.076;38.766;2022-07-23T05:23:02;16.42;;;10.13;;
71947;SDS011;59820;55.076;38.766;2022-07-23T05:25:29;14.25;;;9.27;;
71947;SDS011;59820;55.076;38.766;2022-07-23T05:27:55;16.38;;;10.45;;
71947;SDS011;59820;55.076;38.766;2022-07-23T05:30:21;15.90;;;10.33;;
71947;SDS011;59820;55.076;38.766;2022-07-23T05:32:55;18.73;;;10.23;;
71947;SDS011;59820;55.076;38.766;2022-07-23T05:35:21;17.52;;;9.93;;
71947;SDS011;59820;55.076;38.766;2022-07-23T05:38:13;17.40;;;10.40;;
71947;SDS011;59820;55.076;38.766;2022-07-23T05:40:40;17.27;;;10.10;;
71947;SDS011;59820;55.076;38.766;2022-07-23T05:43:06;15.07;;;8.57;;
71947;SDS011;59820;55.076;38.766;2022-07-23T05:45:33;14.27;;;9.90;;
71947;SDS011;59820;55.076;38.766;2022-07-23T05:47:59;18.42;;;9.95;;
71947;SDS011;59820;55.076;38.766;2022-07-23T05:50:34;14.47;;;9.90;;
71947;SDS011;59820;55.076;38.766;2022-07-23T05:53:19;17.00;;;9.63;;
71947;SDS011;59820;55.076;38.766;2022-07-23T05:56:06;18.52;;;10.00;;
71947;SDS011;59820;55.076;38.766;2022-07-23T05:58:32;14.90;;;9.68;;
71947;SDS011;59820;55.076;38.766;2022-07-23T06:00:58;17.67;;;10.48;;
71947;SDS011;59820;55.076;38.766;2022-07-23T06:03:27;15.43;;;10.17;;
71947;SDS011;59820;55.076;38.766;2022-07-23T06:05:53;14.70;;;10.15;;
71947;SDS011;59820;55.076;38.766;2022-07-23T06:08:20;15.48;;;10.35;;
71947;SDS011;59820;55.076;38.766;2022-07-23T06:10:46;14.48;;;9.80;;
71947;SDS011;59820;55.076;38.766;2022-07-23T06:13:12;16.25;;;9.75;;
71947;SDS011;59820;55.076;38.766;2022-07-23T06:15:38;14.07;;;9.65;;
71947;SDS011;59820;55.076;38.766;2022-07-23T06:21:21;15.00;;;9.18;;
71947;SDS011;59820;55.076;38.766;2022-07-23T06:23:47;14.77;;;10.45;;
71947;SDS011;59820;55.076;38.766;2022-07-23T06:26:13;17.90;;;10.27;;
71947;SDS011;59820;55.076;38.766;2022-07-23T06:28:39;16.63;;;9.50;;
71947;SDS011;59820;55.076;38.766;2022-07-23T06:31:05;15.43;;;9.77;;
71947;SDS011;59820;55.076;38.766;2022-07-23T06:33:31;13.95;;;9.50;;
71947;SDS011;59820;55.076;38.766;2022-07-23T06:35:58;16.95;;;10.18;;
71947;SDS011;59820;55.076;38.766;2022-07-23T06:38:24;17.35;;;12.57;;
71947;SDS011;59820;55.076;38.766;2022-07-23T06:40:50;15.50;;;9.17;;
71947;SDS011;59820;55.076;38.766;2022-07-23T06:43:17;12.57;;;9.32;;
71947;SDS011;59820;55.076;38.766;2022-07-23T06:45:44;14.20;;;8.75;;
71947;SDS011;59820;55.076;38.766;2022-07-23T06:48:10;15.25;;;9.48;;
71947;SDS011;59820;55.076;38.766;2022-07-23T06:50:36;15.55;;;9.88;;
71947;SDS011;59820;55.076;38.766;2022-07-23T06:53:02;14.10;;;9.40;;
71947;SDS011;59820;55.076;38.766;2022-07-23T06:55:28;12.23;;;8.98;;
71947;SDS011;59820;55.076;38.766;2022-07-23T06:57:54;13.80;;;9.23;;
71947;SDS011;59820;55.076;38.766;2022-07-23T07:00:21;12.80;;;8.87;;
71947;SDS011;59820;55.076;38.766;2022-07-23T07:02:47;13.70;;;8.73;;
71947;SDS011;59820;55.076;38.766;2022-07-23T07:05:13;45.85;;;27.10;;
71947;SDS011;59820;55.076;38.766;2022-07-23T07:07:40;12.77;;;9.65;;
71947;SDS011;59820;55.076;38.766;2022-07-23T07:10:05;13.80;;;9.57;;
71947;SDS011;59820;55.076;38.766;2022-07-23T07:12:33;13.90;;;9.30;;
71947;SDS011;59820;55.076;38.766;2022-07-23T07:14:59;13.73;;;9.70;;
71947;SDS011;59820;55.076;38.766;2022-07-23T07:17:25;14.70;;;10.33;;
71947;SDS011;59820;55.076;38.766;2022-07-23T07:19:52;13.75;;;9.52;;
71947;SDS011;59820;55.076;38.766;2022-07-23T07:22:17;16.35;;;8.68;;
71947;SDS011;59820;55.076;38.766;2022-07-23T07:24:44;15.57;;;9.53;;
71947;SDS011;59820;55.076;38.766;2022-07-23T07:27:09;14.77;;;9.80;;
71947;SDS011;59820;55.076;38.766;2022-07-23T07:29:35;13.10;;;9.98;;
71947;SDS011;59820;55.076;38.766;2022-07-23T07:32:01;14.10;;;9.65;;
71947;SDS011;59820;55.076;38.766;2022-07-23T07:34:28;15.30;;;9.88;;
71947;SDS011;59820;55.076;38.766;2022-07-23T07:36:53;14.77;;;10.27;;
71947;SDS011;59820;55.076;38.766;2022-07-23T07:39:20;15.18;;;9.65;;
71947;SDS011;59820;55.076;38.766;2022-07-23T07:41:46;17.50;;;10.63;;
71947;SDS011;59820;55.076;38.766;2022-07-23T07:44:12;14.90;;;10.73;;
71947;SDS011;59820;55.076;38.766;2022-07-23T07:46:38;19.00;;;9.88;;
71947;SDS011;59820;55.076;38.766;2022-07-23T07:49:04;13.68;;;9.55;;
71947;SDS011;59820;55.076;38.766;2022-07-23T07:51:31;14.47;;;9.80;;
71947;SDS011;59820;55.076;38.766;2022-07-23T07:53:58;13.85;;;10.20;;
71947;SDS011;59820;55.076;38.766;2022-07-23T07:56:23;15.00;;;9.93;;
71947;SDS011;59820;55.076;38.766;2022-07-23T07:58:49;16.30;;;10.07;;
71947;SDS011;59820;55.076;38.766;2022-07-23T08:01:15;15.45;;;9.90;;
71947;SDS011;59820;55.076;38.766;2022-07-23T08:03:45;13.77;;;10.23;;
71947;SDS011;59820;55.076;38.766;2022-07-23T08:06:11;14.73;;;9.15;;
71947;SDS011;59820;55.076;38.766;2022-07-23T08:08:37;15.07;;;10.03;;
71947;SDS011;59820;55.076;38.766;2022-07-23T08:11:03;13.48;;;9.27;;
71947;SDS011;59820;55.076;38.766;2022-07-23T08:17:49;15.60;;;10.07;;
71947;SDS011;59820;55.076;38.766;2022-07-23T08:20:17;16.55;;;10.80;;
71947;SDS011;59820;55.076;38.766;2022-07-23T08:22:55;13.05;;;9.52;;
71947;SDS011;59820;55.076;38.766;2022-07-23T08:25:27;12.85;;;9.80;;
71947;SDS011;59820;55.076;38.766;2022-07-23T08:28:02;15.68;;;10.35;;
71947;SDS011;59820;55.076;38.766;2022-07-23T08:30:29;13.23;;;10.13;;
71947;SDS011;59820;55.076;38.766;2022-07-23T08:32:58;16.42;;;10.13;;
71947;SDS011;59820;55.076;38.766;2022-07-23T08:37:55;14.43;;;10.35;;
71947;SDS011;59820;55.076;38.766;2022-07-23T08:40:22;13.70;;;9.90;;
71947;SDS011;59820;55.076;38.766;2022-07-23T08:42:51;15.70;;;10.15;;
71947;SDS011;59820;55.076;38.766;2022-07-23T08:45:18;14.18;;;10.30;;
71947;SDS011;59820;55.076;38.766;2022-07-23T08:48:05;13.52;;;10.15;;
71947;SDS011;59820;55.076;38.766;2022-07-23T08:50:34;13.52;;;9.50;;
71947;SDS011;59820;55.076;38.766;2022-07-23T08:53:02;15.05;;;10.27;;
71947;SDS011;59820;55.076;38.766;2022-07-23T08:55:31;13.25;;;9.90;;
71947;SDS011;59820;55.076;38.766;2022-07-23T08:57:58;12.90;;;10.07;;
71947;SDS011;59820;55.076;38.766;2022-07-23T09:00:23;14.15;;;10.23;;
71947;SDS011;59820;55.076;38.766;2022-07-23T09:02:50;13.60;;;9.77;;
71947;SDS011;59820;55.076;38.766;2022-07-23T09:05:17;13.32;;;9.50;;
71947;SDS011;59820;55.076;38.766;2022-07-23T09:13:31;15.13;;;11.18;;
71947;SDS011;59820;55.076;38.766;2022-07-23T09:24:17;13.70;;;10.57;;
71947;SDS011;59820;55.076;38.766;2022-07-23T09:26:46;14.43;;;9.27;;
71947;SDS011;59820;55.076;38.766;2022-07-23T09:29:18;13.70;;;10.18;;
71947;SDS011;59820;55.076;38.766;2022-07-23T09:31:51;11.85;;;9.10;;
71947;SDS011;59820;55.076;38.766;2022-07-23T09:34:33;13.98;;;9.60;;
71947;SDS011;59820;55.076;38.766;2022-07-23T09:37:11;14.63;;;10.80;;
71947;SDS011;59820;55.076;38.766;2022-07-23T09:39:39;13.40;;;9.88;;
71947;SDS011;59820;55.076;38.766;2022-07-23T09:42:20;16.50;;;11.30;;
71947;SDS011;59820;55.076;38.766;2022-07-23T09:44:51;13.10;;;10.23;;
71947;SDS011;59820;55.076;38.766;2022-07-23T09:47:19;14.27;;;10.95;;
71947;SDS011;59820;55.076;38.766;2022-07-23T09:52:35;13.30;;;10.80;;
71947;SDS011;59820;55.076;38.766;2022-07-23T09:55:07;13.48;;;10.63;;
71947;SDS011;59820;55.076;38.766;2022-07-23T09:57:35;13.48;;;10.57;;
71947;SDS011;59820;55.076;38.766;2022-07-23T10:00:03;13.77;;;10.70;;
71947;SDS011;59820;55.076;38.766;2022-07-23T10:02:32;13.77;;;10.32;;
71947;SDS011;59820;55.076;38.766;2022-07-23T10:05:16;14.45;;;11.43;;
71947;SDS011;59820;55.076;38.766;2022-07-23T10:08:03;13.15;;;10.00;;
71947;SDS011;59820;55.076;38.766;2022-07-23T10:10:35;12.90;;;10.27;;
71947;SDS011;59820;55.076;38.766;2022-07-23T10:13:37;15.77;;;10.60;;
71947;SDS011;59820;55.076;38.766;2022-07-23T10:16:19;13.25;;;10.90;;
71947;SDS011;59820;55.076;38.766;2022-07-23T10:18:47;13.38;;;11.38;;
71947;SDS011;59820;55.076;38.766;2022-07-23T10:21:16;13.57;;;11.25;;
71947;SDS011;59820;55.076;38.766;2022-07-23T10:24:08;15.57;;;11.02;;
71947;SDS011;59820;55.076;38.766;2022-07-23T10:37:51;14.48;;;11.07;;
71947;SDS011;59820;55.076;38.766;2022-07-23T10:40:23;14.77;;;11.27;;
71947;SDS011;59820;55.076;38.766;2022-07-23T10:42:49;13.00;;;10.02;;
71947;SDS011;59820;55.076;38.766;2022-07-23T10:47:52;13.55;;;10.20;;
71947;SDS011;59820;55.076;38.766;2022-07-23T10:50:29;14.27;;;10.68;;
71947;SDS011;59820;55.076;38.766;2022-07-23T10:53:08;13.00;;;10.10;;
71947;SDS011;59820;55.076;38.766;2022-07-23T10:55:41;13.35;;;10.40;;
71947;SDS011;59820;55.076;38.766;2022-07-23T10:58:08;14.10;;;9.50;;
71947;SDS011;59820;55.076;38.766;2022-07-23T11:00:35;13.40;;;10.07;;
71947;SDS011;59820;55.076;38.766;2022-07-23T11:03:02;15.68;;;11.18;;
71947;SDS011;59820;55.076;38.766;2022-07-23T11:05:49;14.98;;;11.40;;
71947;SDS011;59820;55.076;38.766;2022-07-23T11:08:21;15.82;;;10.57;;
71947;SDS011;59820;55.076;38.766;2022-07-23T11:10:49;13.20;;;10.70;;
71947;SDS011;59820;55.076;38.766;2022-07-23T11:13:37;15.50;;;11.68;;
71947;SDS011;59820;55.076;38.766;2022-07-23T11:16:15;13.60;;;10.13;;
71947;SDS011;59820;55.076;38.766;2022-07-23T11:24:08;12.93;;;10.35;;
71947;SDS011;59820;55.076;38.766;2022-07-23T11:31:54;13.13;;;10.57;;
71947;SDS011;59820;55.076;38.766;2022-07-23T11:36:57;13.63;;;9.95;;
71947;SDS011;59820;55.076;38.766;2022-07-23T11:39:26;13.48;;;9.57;;
71947;SDS011;59820;55.076;38.766;2022-07-23T11:41:53;14.30;;;10.38;;
71947;SDS011;59820;55.076;38.766;2022-07-23T11:47:20;13.43;;;9.75;;
71947;SDS011;59820;55.076;38.766;2022-07-23T11:49:58;13.75;;;10.07;;
71947;SDS011;59820;55.076;38.766;2022-07-23T11:52:25;14.60;;;10.25;;
71947;SDS011;59820;55.076;38.766;2022-07-23T11:54:57;17.10;;;10.20;;
71947;SDS011;59820;55.076;38.766;2022-07-23T11:57:29;14.70;;;10.07;;
71947;SDS011;59820;55.076;38.766;2022-07-23T12:00:01;16.13;;;10.63;;
71947;SDS011;59820;55.076;38.766;2022-07-23T12:02:38;13.85;;;10.30;;
71947;SDS011;59820;55.076;38.766;2022-07-23T12:05:16;14.48;;;10.00;;
71947;SDS011;59820;55.076;38.766;2022-07-23T12:07:42;16.00;;;10.40;;
71947;SDS011;59820;55.076;38.766;2022-07-23T12:10:15;16.05;;;11.00;;
71947;SDS011;59820;55.076;38.766;2022-07-23T12:12:58;16.85;;;12.40;;
71947;SDS011;59820;55.076;38.766;2022-07-23T12:15:26;18.52;;;12.02;;
71947;SDS011;59820;55.076;38.766;2022-07-23T12:17:56;16.42;;;11.45;;
71947;SDS011;59820;55.076;38.766;2022-07-23T12:20:31;16.30;;;11.90;;
71947;SDS011;59820;55.076;38.766;2022-07-23T12:23:04;16.77;;;11.13;;
71947;SDS011;59820;55.076;38.766;2022-07-23T12:25:32;15.40;;;11.48;;
71947;SDS011;59820;55.076;38.766;2022-07-23T12:30:41;16.63;;;11.70;;
71947;SDS011;59820;55.076;38.766;2022-07-23T12:33:13;17.05;;;12.20;;
71947;SDS011;59820;55.076;38.766;2022-07-23T12:35:46;17.73;;;12.93;;
71947;SDS011;59820;55.076;38.766;2022-07-23T12:38:22;19.40;;;12.25;;
71947;SDS011;59820;55.076;38.766;2022-07-23T12:45:56;14.40;;;11.25;;
71947;SDS011;59820;55.076;38.766;2022-07-23T12:48:29;16.60;;;11.95;;
71947;SDS011;59820;55.076;38.766;2022-07-23T12:50:59;19.52;;;12.43;;
71947;SDS011;59820;55.076;38.766;2022-07-23T12:55:58;17.63;;;12.80;;
71947;SDS011;59820;55.076;38.766;2022-07-23T12:58:26;21.45;;;13.70;;
71947;SDS011;59820;55.076;38.766;2022-07-23T13:01:01;15.73;;;12.40;;
71947;SDS011;59820;55.076;38.766;2022-07-23T13:03:32;15.43;;;13.25;;
71947;SDS011;59820;55.076;38.766;2022-07-23T13:06:00;18.73;;;13.45;;
71947;SDS011;59820;55.076;38.766;2022-07-23T13:08:28;15.88;;;13.18;;
71947;SDS011;59820;55.076;38.766;2022-07-23T13:10:55;15.82;;;13.02;;
71947;SDS011;59820;55.076;38.766;2022-07-23T13:13:26;17.93;;;14.37;;
71947;SDS011;59820;55.076;38.766;2022-07-23T13:15:54;17.55;;;13.98;;
71947;SDS011;59820;55.076;38.766;2022-07-23T13:18:21;18.77;;;14.40;;
71947;SDS011;59820;55.076;38.766;2022-07-23T13:20:48;16.27;;;12.75;;
71947;SDS011;59820;55.076;38.766;2022-07-23T13:23:14;14.55;;;12.93;;
71947;SDS011;59820;55.076;38.766;2022-07-23T13:25:41;14.93;;;12.60;;
71947;SDS011;59820;55.076;38.766;2022-07-23T13:28:07;15.98;;;13.70;;
71947;SDS011;59820;55.076;38.766;2022-07-23T13:30:34;15.27;;;12.40;;
71947;SDS011;59820;55.076;38.766;2022-07-23T13:33:02;15.25;;;12.20;;
71947;SDS011;59820;55.076;38.766;2022-07-23T13:35:29;14.82;;;12.05;;
71947;SDS011;59820;55.076;38.766;2022-07-23T13:37:55;15.27;;;13.33;;
71947;SDS011;59820;55.076;38.766;2022-07-23T13:40:21;16.05;;;12.80;;
71947;SDS011;59820;55.076;38.766;2022-07-23T13:42:47;15.80;;;12.48;;
71947;SDS011;59820;55.076;38.766;2022-07-23T13:45:14;15.82;;;12.32;;
71947;SDS011;59820;55.076;38.766;2022-07-23T13:47:40;16.50;;;13.00;;
71947;SDS011;59820;55.076;38.766;2022-07-23T13:50:06;16.58;;;12.43;;
71947;SDS011;59820;55.076;38.766;2022-07-23T13:52:33;17.25;;;12.82;;
71947;SDS011;59820;55.076;38.766;2022-07-23T13:55:04;17.15;;;14.38;;
71947;SDS011;59820;55.076;38.766;2022-07-23T13:57:32;17.37;;;14.63;;
71947;SDS011;59820;55.076;38.766;2022-07-23T13:59:58;18.77;;;14.00;;
71947;SDS011;59820;55.076;38.766;2022-07-23T14:02:24;16.55;;;14.18;;
71947;SDS011;59820;55.076;38.766;2022-07-23T14:04:51;17.15;;;14.75;;
71947;SDS011;59820;55.076;38.766;2022-07-23T14:07:17;16.40;;;13.90;;
71947;SDS011;59820;55.076;38.766;2022-07-23T14:09:43;16.47;;;13.10;;
71947;SDS011;59820;55.076;38.766;2022-07-23T14:12:10;15.80;;;12.50;;
71947;SDS011;59820;55.076;38.766;2022-07-23T14:14:36;15.25;;;13.00;;
71947;SDS011;59820;55.076;38.766;2022-07-23T14:17:03;17.85;;;13.00;;
71947;SDS011;59820;55.076;38.766;2022-07-23T14:19:29;16.20;;;11.65;;
71947;SDS011;59820;55.076;38.766;2022-07-23T14:21:55;16.33;;;11.83;;
71947;SDS011;59820;55.076;38.766;2022-07-23T14:24:21;16.40;;;12.38;;
71947;SDS011;59820;55.076;38.766;2022-07-23T14:26:48;15.43;;;12.27;;
71947;SDS011;59820;55.076;38.766;2022-07-23T14:29:13;17.20;;;12.25;;
71947;SDS011;59820;55.076;38.766;2022-07-23T14:31:39;15.50;;;12.25;;
71947;SDS011;59820;55.076;38.766;2022-07-23T14:34:05;16.45;;;12.63;;
71947;SDS011;59820;55.076;38.766;2022-07-23T14:36:31;16.75;;;12.65;;
71947;SDS011;59820;55.076;38.766;2022-07-23T14:38:57;16.63;;;12.70;;
71947;SDS011;59820;55.076;38.766;2022-07-23T14:41:24;16.52;;;12.38;;
71947;SDS011;59820;55.076;38.766;2022-07-23T14:43:50;17.77;;;12.82;;
71947;SDS011;59820;55.076;38.766;2022-07-23T14:46:16;16.67;;;11.88;;
71947;SDS011;59820;55.076;38.766;2022-07-23T14:48:42;18.10;;;12.80;;
71947;SDS011;59820;55.076;38.766;2022-07-23T14:51:08;17.67;;;12.75;;
71947;SDS011;59820;55.076;38.766;2022-07-23T14:53:34;19.27;;;12.98;;
71947;SDS011;59820;55.076;38.766;2022-07-23T14:56:00;22.50;;;13.97;;
71947;SDS011;59820;55.076;38.766;2022-07-23T14:58:29;19.48;;;13.68;;
71947;SDS011;59820;55.076;38.766;2022-07-23T15:00:55;21.88;;;13.90;;
71947;SDS011;59820;55.076;38.766;2022-07-23T15:03:21;21.10;;;13.70;;
71947;SDS011;59820;55.076;38.766;2022-07-23T15:05:47;19.63;;;14.10;;
71947;SDS011;59820;55.076;38.766;2022-07-23T15:08:14;21.55;;;15.13;;
71947;SDS011;59820;55.076;38.766;2022-07-23T15:10:40;23.02;;;14.65;;
71947;SDS011;59820;55.076;38.766;2022-07-23T15:13:16;22.33;;;14.70;;
71947;SDS011;59820;55.076;38.766;2022-07-23T15:15:43;20.92;;;14.30;;
71947;SDS011;59820;55.076;38.766;2022-07-23T15:18:09;20.35;;;13.77;;
71947;SDS011;59820;55.076;38.766;2022-07-23T15:20:40;20.90;;;14.23;;
71947;SDS011;59820;55.076;38.766;2022-07-23T15:23:06;20.10;;;13.85;;
71947;SDS011;59820;55.076;38.766;2022-07-23T15:25:35;20.77;;;13.65;;
71947;SDS011;59820;55.076;38.766;2022-07-23T15:28:01;19.40;;;13.55;;
71947;SDS011;59820;55.076;38.766;2022-07-23T15:30:27;23.02;;;15.60;;